sensor_id;sensor_type;location;lat;lon;timestamp;temperature;humidity
23748;DHT22;12054;53.662;10.126;2022-09-09T00:01:29;15.80;99.90
23748;DHT22;12054;53.662;10.126;2022-09-09T00:07:19;15.70;99.90
23748;DHT22;12054;53.662;10.126;2022-09-09T00:12:48;15.80;99.90
23748;DHT22;12054;53.662;10.126;2022-09-09T00:15:22;15.80;99.90
23748;DHT22;12054;53.662;10.126;2022-09-09T00:17:59;15.80;99.90
23748;DHT22;12054;53.662;10.126;2022-09-09T00:23:30;15.80;99.90
23748;DHT22;12054;53.662;10.126;2022-09-09T00:26:41;15.80;99.90
23748;DHT22;12054;53.662;10.126;2022-09-09T00:31:32;15.80;99.90
23748;DHT22;12054;53.662;10.126;2022-09-09T00:34:12;15.80;99.90
23748;DHT22;12054;53.662;10.126;2022-09-09T00:36:40;15.80;99.90
23748;DHT22;12054;53.662;10.126;2022-09-09T00:39:13;15.80;99.90
23748;DHT22;12054;53.662;10.126;2022-09-09T00:42:31;15.80;99.90
23748;DHT22;12054;53.662;10.126;2022-09-09T00:44:38;15.80;99.90
23748;DHT22;12054;53.662;10.126;2022-09-09T00:52:45;15.80;99.90
23748;DHT22;12054;53.662;10.126;2022-09-09T00:55:45;15.80;99.90
23748;DHT22;12054;53.662;10.126;2022-09-09T00:58:14;15.80;99.90
23748;DHT22;12054;53.662;10.126;2022-09-09T01:03:54;15.80;99.90
23748;DHT22;12054;53.662;10.126;2022-09-09T01:06:30;15.80;99.90
23748;DHT22;12054;53.662;10.126;2022-09-09T01:22:36;15.80;99.90
23748;DHT22;12054;53.662;10.126;2022-09-09T01:25:56;15.70;99.90
23748;DHT22;12054;53.662;10.126;2022-09-09T01:28:18;15.70;99.90
23748;DHT22;12054;53.662;10.126;2022-09-09T01:30:47;15.70;99.90
23748;DHT22;12054;53.662;10.126;2022-09-09T01:33:17;15.80;99.90
23748;DHT22;12054;53.662;10.126;2022-09-09T01:38:22;15.80;99.90
23748;DHT22;12054;53.662;10.126;2022-09-09T01:40:49;15.80;99.90
23748;DHT22;12054;53.662;10.126;2022-09-09T01:43:20;15.80;99.90
23748;DHT22;12054;53.662;10.126;2022-09-09T01:45:48;15.80;99.90
23748;DHT22;12054;53.662;10.126;2022-09-09T01:48:15;15.70;99.90
23748;DHT22;12054;53.662;10.126;2022-09-09T01:50:41;15.80;99.90
23748;DHT22;12054;53.662;10.126;2022-09-09T01:53:07;15.70;99.90
23748;DHT22;12054;53.662;10.126;2022-09-09T01:55:42;15.80;99.90
23748;DHT22;12054;53.662;10.126;2022-09-09T01:58:45;15.70;99.90
23748;DHT22;12054;53.662;10.126;2022-09-09T02:03:52;15.70;99.90
23748;DHT22;12054;53.662;10.126;2022-09-09T02:06:27;15.80;99.90
23748;DHT22;12054;53.662;10.126;2022-09-09T02:08:56;15.80;99.90
23748;DHT22;12054;53.662;10.126;2022-09-09T02:11:27;15.70;99.90
23748;DHT22;12054;53.662;10.126;2022-09-09T02:14:01;15.70;99.90
23748;DHT22;12054;53.662;10.126;2022-09-09T02:16:33;15.70;99.90
23748;DHT22;12054;53.662;10.126;2022-09-09T02:19:27;15.70;99.90
23748;DHT22;12054;53.662;10.126;2022-09-09T02:21:55;15.70;99.90
23748;DHT22;12054;53.662;10.126;2022-09-09T02:24:21;15.70;99.90
23748;DHT22;12054;53.662;10.126;2022-09-09T02:26:51;15.70;99.90
23748;DHT22;12054;53.662;10.126;2022-09-09T02:29:21;15.70;99.90
23748;DHT22;12054;53.662;10.126;2022-09-09T02:31:49;15.80;99.90
23748;DHT22;12054;53.662;10.126;2022-09-09T02:34:18;15.80;99.90
23748;DHT22;12054;53.662;10.126;2022-09-09T02:36:48;15.80;99.90
23748;DHT22;12054;53.662;10.126;2022-09-09T02:39:14;15.70;99.90
23748;DHT22;12054;53.662;10.126;2022-09-09T02:41:41;15.80;99.90
23748;DHT22;12054;53.662;10.126;2022-09-09T02:44:11;15.70;99.90
23748;DHT22;12054;53.662;10.126;2022-09-09T02:49:09;15.70;99.90
23748;DHT22;12054;53.662;10.126;2022-09-09T02:51:50;15.70;99.90
23748;DHT22;12054;53.662;10.126;2022-09-09T02:54:26;15.70;99.90
23748;DHT22;12054;53.662;10.126;2022-09-09T02:56:59;15.70;99.90
23748;DHT22;12054;53.662;10.126;2022-09-09T02:59:27;15.70;99.90
23748;DHT22;12054;53.662;10.126;2022-09-09T03:01:54;15.70;99.90
23748;DHT22;12054;53.662;10.126;2022-09-09T03:04:20;15.80;99.90
23748;DHT22;12054;53.662;10.126;2022-09-09T03:06:45;15.70;99.90
23748;DHT22;12054;53.662;10.126;2022-09-09T03:09:11;15.70;99.90
23748;DHT22;12054;53.662;10.126;2022-09-09T03:11:37;15.70;99.90
23748;DHT22;12054;53.662;10.126;2022-09-09T03:14:04;15.80;99.90
23748;DHT22;12054;53.662;10.126;2022-09-09T03:16:29;15.70;99.90
23748;DHT22;12054;53.662;10.126;2022-09-09T03:18:55;15.70;99.90
23748;DHT22;12054;53.662;10.126;2022-09-09T03:21:21;15.70;99.90
23748;DHT22;12054;53.662;10.126;2022-09-09T03:23:47;15.70;99.90
23748;DHT22;12054;53.662;10.126;2022-09-09T03:26:13;15.70;99.90
23748;DHT22;12054;53.662;10.126;2022-09-09T03:28:41;15.70;99.90
23748;DHT22;12054;53.662;10.126;2022-09-09T03:31:07;15.70;99.90
23748;DHT22;12054;53.662;10.126;2022-09-09T03:33:38;15.70;99.90
23748;DHT22;12054;53.662;10.126;2022-09-09T03:36:05;15.70;99.90
23748;DHT22;12054;53.662;10.126;2022-09-09T03:38:31;15.70;99.90
23748;DHT22;12054;53.662;10.126;2022-09-09T03:40:57;15.70;99.90
23748;DHT22;12054;53.662;10.126;2022-09-09T03:43:24;15.70;99.90
23748;DHT22;12054;53.662;10.126;2022-09-09T03:45:51;15.70;99.90
23748;DHT22;12054;53.662;10.126;2022-09-09T03:48:17;15.70;99.90
23748;DHT22;12054;53.662;10.126;2022-09-09T03:50:47;15.70;99.90
23748;DHT22;12054;53.662;10.126;2022-09-09T03:53:17;15.70;99.90
23748;DHT22;12054;53.662;10.126;2022-09-09T03:55:48;15.70;99.90
23748;DHT22;12054;53.662;10.126;2022-09-09T03:58:15;15.70;99.90
23748;DHT22;12054;53.662;10.126;2022-09-09T04:00:41;15.70;99.90
23748;DHT22;12054;53.662;10.126;2022-09-09T04:03:09;15.70;99.90
23748;DHT22;12054;53.662;10.126;2022-09-09T04:05:35;15.70;99.90
23748;DHT22;12054;53.662;10.126;2022-09-09T04:08:05;15.70;99.90
23748;DHT22;12054;53.662;10.126;2022-09-09T04:10:31;15.70;99.90
23748;DHT22;12054;53.662;10.126;2022-09-09T04:12:56;15.70;99.90
23748;DHT22;12054;53.662;10.126;2022-09-09T04:15:22;15.70;99.90
23748;DHT22;12054;53.662;10.126;2022-09-09T04:17:47;15.60;99.90
23748;DHT22;12054;53.662;10.126;2022-09-09T04:20:13;15.60;99.90
23748;DHT22;12054;53.662;10.126;2022-09-09T04:22:39;15.60;99.90
23748;DHT22;12054;53.662;10.126;2022-09-09T04:25:05;15.60;99.90
23748;DHT22;12054;53.662;10.126;2022-09-09T04:27:31;15.60;99.90
23748;DHT22;12054;53.662;10.126;2022-09-09T04:29:57;15.60;99.90
23748;DHT22;12054;53.662;10.126;2022-09-09T04:32:24;15.60;99.90
23748;DHT22;12054;53.662;10.126;2022-09-09T04:34:52;15.60;99.90
23748;DHT22;12054;53.662;10.126;2022-09-09T04:37:19;15.60;99.90
23748;DHT22;12054;53.662;10.126;2022-09-09T04:39:45;15.50;99.90
23748;DHT22;12054;53.662;10.126;2022-09-09T04:42:11;15.50;99.90
23748;DHT22;12054;53.662;10.126;2022-09-09T04:44:36;15.60;99.90
23748;DHT22;12054;53.662;10.126;2022-09-09T04:47:04;15.50;99.90
23748;DHT22;12054;53.662;10.126;2022-09-09T04:49:31;15.50;99.90
23748;DHT22;12054;53.662;10.126;2022-09-09T04:51:56;15.50;99.90
23748;DHT22;12054;53.662;10.126;2022-09-09T04:54:22;15.50;99.90
23748;DHT22;12054;53.662;10.126;2022-09-09T04:56:49;15.50;99.90
23748;DHT22;12054;53.662;10.126;2022-09-09T04:59:15;15.50;99.90
23748;DHT22;12054;53.662;10.126;2022-09-09T05:01:41;15.50;99.90
23748;DHT22;12054;53.662;10.126;2022-09-09T05:04:07;15.50;99.90
23748;DHT22;12054;53.662;10.126;2022-09-09T05:06:33;15.40;99.90
23748;DHT22;12054;53.662;10.126;2022-09-09T05:09:01;15.40;99.90
23748;DHT22;12054;53.662;10.126;2022-09-09T05:11:29;15.50;99.90
23748;DHT22;12054;53.662;10.126;2022-09-09T05:13:56;15.40;99.90
23748;DHT22;12054;53.662;10.126;2022-09-09T05:16:22;15.50;99.90
23748;DHT22;12054;53.662;10.126;2022-09-09T05:18:48;15.40;99.90
23748;DHT22;12054;53.662;10.126;2022-09-09T05:21:16;15.40;99.90
23748;DHT22;12054;53.662;10.126;2022-09-09T05:23:42;15.40;99.90
23748;DHT22;12054;53.662;10.126;2022-09-09T05:26:12;15.50;99.90
23748;DHT22;12054;53.662;10.126;2022-09-09T05:28:38;15.40;99.90
23748;DHT22;12054;53.662;10.126;2022-09-09T05:31:06;15.40;99.90
23748;DHT22;12054;53.662;10.126;2022-09-09T05:33:38;15.40;99.90
23748;DHT22;12054;53.662;10.126;2022-09-09T05:36:08;15.40;99.90
23748;DHT22;12054;53.662;10.126;2022-09-09T05:38:34;15.40;99.90
23748;DHT22;12054;53.662;10.126;2022-09-09T05:41:02;15.40;99.90
23748;DHT22;12054;53.662;10.126;2022-09-09T05:43:28;15.40;99.90
23748;DHT22;12054;53.662;10.126;2022-09-09T05:46:04;15.40;99.90
23748;DHT22;12054;53.662;10.126;2022-09-09T05:48:34;15.40;99.90
23748;DHT22;12054;53.662;10.126;2022-09-09T05:51:01;15.40;99.90
23748;DHT22;12054;53.662;10.126;2022-09-09T05:53:28;15.40;99.90
23748;DHT22;12054;53.662;10.126;2022-09-09T05:56:08;15.40;99.90
23748;DHT22;12054;53.662;10.126;2022-09-09T05:58:38;15.40;99.90
23748;DHT22;12054;53.662;10.126;2022-09-09T06:03:29;15.40;99.90
23748;DHT22;12054;53.662;10.126;2022-09-09T06:06:03;15.40;99.90
23748;DHT22;12054;53.662;10.126;2022-09-09T06:08:36;15.40;99.90
23748;DHT22;12054;53.662;10.126;2022-09-09T06:11:05;15.40;99.90
23748;DHT22;12054;53.662;10.126;2022-09-09T06:13:31;15.40;99.90
23748;DHT22;12054;53.662;10.126;2022-09-09T06:15:57;15.40;99.90
23748;DHT22;12054;53.662;10.126;2022-09-09T06:18:24;15.50;99.90
23748;DHT22;12054;53.662;10.126;2022-09-09T06:20:57;15.50;99.90
23748;DHT22;12054;53.662;10.126;2022-09-09T06:23:23;15.50;99.90
23748;DHT22;12054;53.662;10.126;2022-09-09T06:25:48;15.50;99.90
23748;DHT22;12054;53.662;10.126;2022-09-09T06:28:15;15.50;99.90
23748;DHT22;12054;53.662;10.126;2022-09-09T06:30:41;15.50;99.90
23748;DHT22;12054;53.662;10.126;2022-09-09T06:33:07;15.50;99.90
23748;DHT22;12054;53.662;10.126;2022-09-09T06:35:32;15.50;99.90
23748;DHT22;12054;53.662;10.126;2022-09-09T06:37:58;15.50;99.90
23748;DHT22;12054;53.662;10.126;2022-09-09T06:40:24;15.50;99.90
23748;DHT22;12054;53.662;10.126;2022-09-09T06:42:50;15.60;99.90
23748;DHT22;12054;53.662;10.126;2022-09-09T06:45:15;15.60;99.90
23748;DHT22;12054;53.662;10.126;2022-09-09T06:47:42;15.60;99.90
23748;DHT22;12054;53.662;10.126;2022-09-09T06:50:08;15.60;99.90
23748;DHT22;12054;53.662;10.126;2022-09-09T06:52:35;15.60;99.90
23748;DHT22;12054;53.662;10.126;2022-09-09T06:55:01;15.60;99.90
23748;DHT22;12054;53.662;10.126;2022-09-09T06:57:28;15.60;99.90
23748;DHT22;12054;53.662;10.126;2022-09-09T06:59:53;15.70;99.90
23748;DHT22;12054;53.662;10.126;2022-09-09T07:02:19;15.70;99.90
23748;DHT22;12054;53.662;10.126;2022-09-09T07:04:45;15.70;99.90
23748;DHT22;12054;53.662;10.126;2022-09-09T07:07:11;15.70;99.90
23748;DHT22;12054;53.662;10.126;2022-09-09T07:09:40;15.70;99.90
23748;DHT22;12054;53.662;10.126;2022-09-09T07:12:06;15.70;99.90
23748;DHT22;12054;53.662;10.126;2022-09-09T07:14:32;15.70;99.90
23748;DHT22;12054;53.662;10.126;2022-09-09T07:16:59;15.70;99.90
23748;DHT22;12054;53.662;10.126;2022-09-09T07:19:25;15.70;99.90
23748;DHT22;12054;53.662;10.126;2022-09-09T07:21:51;15.70;99.90
23748;DHT22;12054;53.662;10.126;2022-09-09T07:24:16;15.70;99.90
23748;DHT22;12054;53.662;10.126;2022-09-09T07:26:42;15.80;99.90
23748;DHT22;12054;53.662;10.126;2022-09-09T07:29:09;15.90;99.90
23748;DHT22;12054;53.662;10.126;2022-09-09T07:31:37;15.90;99.90
23748;DHT22;12054;53.662;10.126;2022-09-09T07:34:03;16.00;99.90
23748;DHT22;12054;53.662;10.126;2022-09-09T07:36:32;16.20;99.90
23748;DHT22;12054;53.662;10.126;2022-09-09T07:39:01;16.30;99.90
23748;DHT22;12054;53.662;10.126;2022-09-09T07:41:34;16.60;99.90
23748;DHT22;12054;53.662;10.126;2022-09-09T07:44:05;16.70;99.90
23748;DHT22;12054;53.662;10.126;2022-09-09T07:46:32;16.80;99.90
23748;DHT22;12054;53.662;10.126;2022-09-09T07:48:58;16.90;99.90
23748;DHT22;12054;53.662;10.126;2022-09-09T07:51:30;16.80;99.90
23748;DHT22;12054;53.662;10.126;2022-09-09T07:53:59;16.80;99.90
23748;DHT22;12054;53.662;10.126;2022-09-09T07:56:26;16.90;99.90
23748;DHT22;12054;53.662;10.126;2022-09-09T07:58:53;16.90;99.90
23748;DHT22;12054;53.662;10.126;2022-09-09T08:01:26;16.90;99.90
23748;DHT22;12054;53.662;10.126;2022-09-09T08:03:55;16.90;99.90
23748;DHT22;12054;53.662;10.126;2022-09-09T08:06:24;16.90;99.90
23748;DHT22;12054;53.662;10.126;2022-09-09T08:08:52;16.90;99.90
23748;DHT22;12054;53.662;10.126;2022-09-09T08:11:20;16.90;99.90
23748;DHT22;12054;53.662;10.126;2022-09-09T08:13:46;17.00;99.90
23748;DHT22;12054;53.662;10.126;2022-09-09T08:16:15;17.00;99.90
23748;DHT22;12054;53.662;10.126;2022-09-09T08:18:41;17.10;99.90
23748;DHT22;12054;53.662;10.126;2022-09-09T08:21:08;17.10;99.90
23748;DHT22;12054;53.662;10.126;2022-09-09T08:23:34;17.10;99.90
23748;DHT22;12054;53.662;10.126;2022-09-09T08:26:05;17.10;99.90
23748;DHT22;12054;53.662;10.126;2022-09-09T08:28:31;17.20;99.90
23748;DHT22;12054;53.662;10.126;2022-09-09T08:31:05;17.20;99.90
23748;DHT22;12054;53.662;10.126;2022-09-09T08:33:30;17.20;99.90
23748;DHT22;12054;53.662;10.126;2022-09-09T08:35:56;17.20;99.90
23748;DHT22;12054;53.662;10.126;2022-09-09T08:38:21;17.30;99.90
23748;DHT22;12054;53.662;10.126;2022-09-09T08:40:49;17.40;99.90
23748;DHT22;12054;53.662;10.126;2022-09-09T08:43:16;17.50;99.90
23748;DHT22;12054;53.662;10.126;2022-09-09T08:46:07;17.60;99.90
23748;DHT22;12054;53.662;10.126;2022-09-09T08:49:02;17.70;99.90
23748;DHT22;12054;53.662;10.126;2022-09-09T08:51:32;17.80;99.90
23748;DHT22;12054;53.662;10.126;2022-09-09T08:54:00;17.90;99.90
23748;DHT22;12054;53.662;10.126;2022-09-09T08:56:27;18.00;99.90
23748;DHT22;12054;53.662;10.126;2022-09-09T08:58:56;18.20;99.90
23748;DHT22;12054;53.662;10.126;2022-09-09T09:01:51;18.30;99.90
23748;DHT22;12054;53.662;10.126;2022-09-09T09:07:15;18.40;99.90
23748;DHT22;12054;53.662;10.126;2022-09-09T09:12:23;18.60;99.90
23748;DHT22;12054;53.662;10.126;2022-09-09T09:14:49;18.70;99.90
23748;DHT22;12054;53.662;10.126;2022-09-09T09:17:20;18.80;99.90
23748;DHT22;12054;53.662;10.126;2022-09-09T09:19:47;18.90;99.90
23748;DHT22;12054;53.662;10.126;2022-09-09T09:27:58;18.90;99.90
23748;DHT22;12054;53.662;10.126;2022-09-09T09:30:29;18.90;99.90
23748;DHT22;12054;53.662;10.126;2022-09-09T09:33:01;19.00;99.90
23748;DHT22;12054;53.662;10.126;2022-09-09T09:35:27;18.90;99.90
23748;DHT22;12054;53.662;10.126;2022-09-09T09:37:53;19.00;99.90
23748;DHT22;12054;53.662;10.126;2022-09-09T09:40:21;19.00;99.90
23748;DHT22;12054;53.662;10.126;2022-09-09T09:42:58;19.10;99.90
23748;DHT22;12054;53.662;10.126;2022-09-09T09:45:43;19.10;99.90
23748;DHT22;12054;53.662;10.126;2022-09-09T09:48:13;19.20;99.90
23748;DHT22;12054;53.662;10.126;2022-09-09T09:50:57;19.30;99.90
23748;DHT22;12054;53.662;10.126;2022-09-09T09:53:30;19.40;99.90
23748;DHT22;12054;53.662;10.126;2022-09-09T09:56:01;19.50;99.90
23748;DHT22;12054;53.662;10.126;2022-09-09T09:58:31;19.60;99.90
23748;DHT22;12054;53.662;10.126;2022-09-09T10:00:59;19.60;99.90
23748;DHT22;12054;53.662;10.126;2022-09-09T10:03:29;19.70;99.90
23748;DHT22;12054;53.662;10.126;2022-09-09T10:05:56;19.80;99.90
23748;DHT22;12054;53.662;10.126;2022-09-09T10:08:23;19.80;99.90
23748;DHT22;12054;53.662;10.126;2022-09-09T10:11:26;19.90;99.90
23748;DHT22;12054;53.662;10.126;2022-09-09T10:19:05;20.00;99.90
23748;DHT22;12054;53.662;10.126;2022-09-09T10:21:57;20.10;99.90
23748;DHT22;12054;53.662;10.126;2022-09-09T10:29:56;20.40;99.90
23748;DHT22;12054;53.662;10.126;2022-09-09T10:32:36;20.50;99.90
23748;DHT22;12054;53.662;10.126;2022-09-09T10:43:16;20.60;99.90
23748;DHT22;12054;53.662;10.126;2022-09-09T10:52:38;20.90;99.90
23748;DHT22;12054;53.662;10.126;2022-09-09T10:57:37;21.10;99.90
23748;DHT22;12054;53.662;10.126;2022-09-09T11:00:35;21.30;99.90
23748;DHT22;12054;53.662;10.126;2022-09-09T11:03:04;21.40;99.90
23748;DHT22;12054;53.662;10.126;2022-09-09T11:05:44;21.50;99.90
23748;DHT22;12054;53.662;10.126;2022-09-09T11:08:23;21.50;99.90
23748;DHT22;12054;53.662;10.126;2022-09-09T11:11:02;21.60;99.90
23748;DHT22;12054;53.662;10.126;2022-09-09T11:13:53;21.60;99.90
23748;DHT22;12054;53.662;10.126;2022-09-09T11:16:31;21.70;99.90
23748;DHT22;12054;53.662;10.126;2022-09-09T11:21:48;21.70;99.90
23748;DHT22;12054;53.662;10.126;2022-09-09T11:24:44;21.70;99.90
23748;DHT22;12054;53.662;10.126;2022-09-09T11:27:15;21.80;99.70
23748;DHT22;12054;53.662;10.126;2022-09-09T11:30:04;21.70;99.70
23748;DHT22;12054;53.662;10.126;2022-09-09T11:35:48;21.70;99.90
23748;DHT22;12054;53.662;10.126;2022-09-09T11:38:26;21.70;99.90
23748;DHT22;12054;53.662;10.126;2022-09-09T11:41:11;21.80;99.90
23748;DHT22;12054;53.662;10.126;2022-09-09T11:43:42;21.80;99.90
23748;DHT22;12054;53.662;10.126;2022-09-09T11:46:09;21.80;99.90
23748;DHT22;12054;53.662;10.126;2022-09-09T11:48:40;21.90;99.90
23748;DHT22;12054;53.662;10.126;2022-09-09T11:53:58;22.00;99.50
23748;DHT22;12054;53.662;10.126;2022-09-09T11:56:43;22.00;99.20
23748;DHT22;12054;53.662;10.126;2022-09-09T11:59:22;22.10;99.10
23748;DHT22;12054;53.662;10.126;2022-09-09T12:02:01;22.10;99.00
23748;DHT22;12054;53.662;10.126;2022-09-09T12:04:30;22.10;98.90
23748;DHT22;12054;53.662;10.126;2022-09-09T12:09:55;22.20;98.80
23748;DHT22;12054;53.662;10.126;2022-09-09T12:15:22;22.30;98.60
23748;DHT22;12054;53.662;10.126;2022-09-09T12:17:58;22.30;98.60
23748;DHT22;12054;53.662;10.126;2022-09-09T12:20:51;22.30;98.60
23748;DHT22;12054;53.662;10.126;2022-09-09T12:23:55;22.30;98.70
23748;DHT22;12054;53.662;10.126;2022-09-09T12:31:41;22.30;98.60
23748;DHT22;12054;53.662;10.126;2022-09-09T12:34:27;22.30;98.50
23748;DHT22;12054;53.662;10.126;2022-09-09T12:37:03;22.30;98.50
23748;DHT22;12054;53.662;10.126;2022-09-09T12:39:38;22.20;98.40
23748;DHT22;12054;53.662;10.126;2022-09-09T12:42:16;22.20;98.40
23748;DHT22;12054;53.662;10.126;2022-09-09T12:45:03;22.10;98.40
23748;DHT22;12054;53.662;10.126;2022-09-09T12:47:46;22.10;98.30
23748;DHT22;12054;53.662;10.126;2022-09-09T12:50:19;22.00;98.40
23748;DHT22;12054;53.662;10.126;2022-09-09T12:52:47;22.00;98.50
23748;DHT22;12054;53.662;10.126;2022-09-09T12:55:20;21.90;98.60
23748;DHT22;12054;53.662;10.126;2022-09-09T12:57:49;21.90;98.80
23748;DHT22;12054;53.662;10.126;2022-09-09T13:00:21;21.90;99.10
23748;DHT22;12054;53.662;10.126;2022-09-09T13:02:53;21.80;99.30
23748;DHT22;12054;53.662;10.126;2022-09-09T13:05:41;21.80;99.70
23748;DHT22;12054;53.662;10.126;2022-09-09T13:08:09;21.80;99.90
23748;DHT22;12054;53.662;10.126;2022-09-09T13:10:40;21.80;99.90
23748;DHT22;12054;53.662;10.126;2022-09-09T13:13:16;21.80;99.90
23748;DHT22;12054;53.662;10.126;2022-09-09T13:15:52;21.70;99.90
23748;DHT22;12054;53.662;10.126;2022-09-09T13:18:22;21.70;99.90
23748;DHT22;12054;53.662;10.126;2022-09-09T13:20:49;21.60;99.90
23748;DHT22;12054;53.662;10.126;2022-09-09T13:23:18;21.50;99.90
23748;DHT22;12054;53.662;10.126;2022-09-09T13:25:56;21.50;99.90
23748;DHT22;12054;53.662;10.126;2022-09-09T13:28:25;21.50;99.90
23748;DHT22;12054;53.662;10.126;2022-09-09T13:31:02;21.40;99.90
23748;DHT22;12054;53.662;10.126;2022-09-09T13:33:34;21.40;99.90
23748;DHT22;12054;53.662;10.126;2022-09-09T13:36:12;21.40;99.90
23748;DHT22;12054;53.662;10.126;2022-09-09T13:41:22;21.30;99.90
23748;DHT22;12054;53.662;10.126;2022-09-09T13:43:51;21.30;99.90
23748;DHT22;12054;53.662;10.126;2022-09-09T13:49:21;21.10;99.90
23748;DHT22;12054;53.662;10.126;2022-09-09T13:51:51;21.10;99.90
23748;DHT22;12054;53.662;10.126;2022-09-09T13:54:21;21.10;99.90
23748;DHT22;12054;53.662;10.126;2022-09-09T13:56:48;21.00;99.90
23748;DHT22;12054;53.662;10.126;2022-09-09T13:59:17;21.00;99.90
23748;DHT22;12054;53.662;10.126;2022-09-09T14:01:45;20.90;99.90
23748;DHT22;12054;53.662;10.126;2022-09-09T14:04:11;20.90;99.90
23748;DHT22;12054;53.662;10.126;2022-09-09T14:06:38;20.90;99.90
23748;DHT22;12054;53.662;10.126;2022-09-09T14:09:11;20.90;99.90
23748;DHT22;12054;53.662;10.126;2022-09-09T14:11:37;20.80;99.90
23748;DHT22;12054;53.662;10.126;2022-09-09T14:14:03;20.80;99.90
23748;DHT22;12054;53.662;10.126;2022-09-09T14:16:29;20.70;99.90
23748;DHT22;12054;53.662;10.126;2022-09-09T14:18:55;20.70;99.90
23748;DHT22;12054;53.662;10.126;2022-09-09T14:21:24;20.60;99.90
23748;DHT22;12054;53.662;10.126;2022-09-09T14:24:16;20.60;99.90
23748;DHT22;12054;53.662;10.126;2022-09-09T14:26:42;20.60;99.90
23748;DHT22;12054;53.662;10.126;2022-09-09T14:29:08;20.50;99.90
23748;DHT22;12054;53.662;10.126;2022-09-09T14:31:33;20.60;99.90
23748;DHT22;12054;53.662;10.126;2022-09-09T14:33:59;20.50;99.90
23748;DHT22;12054;53.662;10.126;2022-09-09T14:36:25;20.50;99.90
23748;DHT22;12054;53.662;10.126;2022-09-09T14:38:51;20.40;99.90
23748;DHT22;12054;53.662;10.126;2022-09-09T14:41:19;20.50;99.90
23748;DHT22;12054;53.662;10.126;2022-09-09T14:43:45;20.40;99.90
23748;DHT22;12054;53.662;10.126;2022-09-09T14:46:14;20.40;99.90
23748;DHT22;12054;53.662;10.126;2022-09-09T14:48:40;20.40;99.90
23748;DHT22;12054;53.662;10.126;2022-09-09T14:51:20;20.40;99.90
23748;DHT22;12054;53.662;10.126;2022-09-09T14:53:47;20.30;99.90
23748;DHT22;12054;53.662;10.126;2022-09-09T14:56:17;20.30;99.90
23748;DHT22;12054;53.662;10.126;2022-09-09T14:58:43;20.30;99.90
23748;DHT22;12054;53.662;10.126;2022-09-09T15:01:14;20.20;99.90
23748;DHT22;12054;53.662;10.126;2022-09-09T15:03:41;20.20;99.90
23748;DHT22;12054;53.662;10.126;2022-09-09T15:06:09;20.10;99.90
23748;DHT22;12054;53.662;10.126;2022-09-09T15:08:36;20.10;99.90
23748;DHT22;12054;53.662;10.126;2022-09-09T15:11:04;20.00;99.90
23748;DHT22;12054;53.662;10.126;2022-09-09T15:13:30;19.90;99.90
23748;DHT22;12054;53.662;10.126;2022-09-09T15:16:15;19.90;99.90
23748;DHT22;12054;53.662;10.126;2022-09-09T15:18:44;19.90;99.90
23748;DHT22;12054;53.662;10.126;2022-09-09T15:21:19;19.80;99.90
23748;DHT22;12054;53.662;10.126;2022-09-09T15:23:46;19.80;99.90
23748;DHT22;12054;53.662;10.126;2022-09-09T15:26:13;19.70;99.90
23748;DHT22;12054;53.662;10.126;2022-09-09T15:28:43;19.70;99.90
23748;DHT22;12054;53.662;10.126;2022-09-09T15:31:18;19.70;99.90
23748;DHT22;12054;53.662;10.126;2022-09-09T15:33:52;19.70;99.90
23748;DHT22;12054;53.662;10.126;2022-09-09T15:36:26;19.70;99.90
23748;DHT22;12054;53.662;10.126;2022-09-09T15:38:52;19.60;99.90
23748;DHT22;12054;53.662;10.126;2022-09-09T15:41:25;19.60;99.90
23748;DHT22;12054;53.662;10.126;2022-09-09T15:43:52;19.60;99.90
23748;DHT22;12054;53.662;10.126;2022-09-09T15:46:29;19.60;99.90
23748;DHT22;12054;53.662;10.126;2022-09-09T15:48:57;19.60;99.90
23748;DHT22;12054;53.662;10.126;2022-09-09T15:51:24;19.60;99.90
23748;DHT22;12054;53.662;10.126;2022-09-09T15:53:59;19.60;99.90
23748;DHT22;12054;53.662;10.126;2022-09-09T15:56:27;19.60;99.90
23748;DHT22;12054;53.662;10.126;2022-09-09T15:58:55;19.50;99.90
23748;DHT22;12054;53.662;10.126;2022-09-09T16:01:20;19.50;99.90
23748;DHT22;12054;53.662;10.126;2022-09-09T16:03:46;19.50;99.90
23748;DHT22;12054;53.662;10.126;2022-09-09T16:06:13;19.50;99.90
23748;DHT22;12054;53.662;10.126;2022-09-09T16:08:41;19.40;99.90
23748;DHT22;12054;53.662;10.126;2022-09-09T16:11:16;19.40;99.90
23748;DHT22;12054;53.662;10.126;2022-09-09T16:13:43;19.40;99.90
23748;DHT22;12054;53.662;10.126;2022-09-09T16:16:13;19.40;99.90
23748;DHT22;12054;53.662;10.126;2022-09-09T16:18:41;19.30;99.90
23748;DHT22;12054;53.662;10.126;2022-09-09T16:21:13;19.30;99.90
23748;DHT22;12054;53.662;10.126;2022-09-09T16:23:39;19.30;99.90
23748;DHT22;12054;53.662;10.126;2022-09-09T16:26:05;19.30;99.90
23748;DHT22;12054;53.662;10.126;2022-09-09T16:28:30;19.30;99.90
23748;DHT22;12054;53.662;10.126;2022-09-09T16:30:56;19.30;99.90
23748;DHT22;12054;53.662;10.126;2022-09-09T16:33:23;19.30;99.90
23748;DHT22;12054;53.662;10.126;2022-09-09T16:35:49;19.30;99.90
23748;DHT22;12054;53.662;10.126;2022-09-09T16:38:15;19.20;99.90
23748;DHT22;12054;53.662;10.126;2022-09-09T16:40:40;19.20;99.90
23748;DHT22;12054;53.662;10.126;2022-09-09T16:43:07;19.20;99.90
23748;DHT22;12054;53.662;10.126;2022-09-09T16:45:32;19.20;99.90
23748;DHT22;12054;53.662;10.126;2022-09-09T16:47:59;19.20;99.90
23748;DHT22;12054;53.662;10.126;2022-09-09T16:50:26;19.20;99.90
23748;DHT22;12054;53.662;10.126;2022-09-09T16:52:52;19.20;99.90
23748;DHT22;12054;53.662;10.126;2022-09-09T16:55:18;19.20;99.90
23748;DHT22;12054;53.662;10.126;2022-09-09T16:57:46;19.20;99.90
23748;DHT22;12054;53.662;10.126;2022-09-09T17:00:14;19.10;99.90
23748;DHT22;12054;53.662;10.126;2022-09-09T17:02:40;19.20;99.90
23748;DHT22;12054;53.662;10.126;2022-09-09T17:05:06;19.30;99.90
23748;DHT22;12054;53.662;10.126;2022-09-09T17:07:31;19.10;99.90
23748;DHT22;12054;53.662;10.126;2022-09-09T17:09:57;19.10;99.90
23748;DHT22;12054;53.662;10.126;2022-09-09T17:12:23;19.10;99.90
23748;DHT22;12054;53.662;10.126;2022-09-09T17:14:49;19.10;99.90
23748;DHT22;12054;53.662;10.126;2022-09-09T17:17:15;19.10;99.90
23748;DHT22;12054;53.662;10.126;2022-09-09T17:19:40;19.10;99.90
23748;DHT22;12054;53.662;10.126;2022-09-09T17:22:06;19.10;99.90
23748;DHT22;12054;53.662;10.126;2022-09-09T17:24:32;19.10;99.90